Time;durP1;ratioP1;P1;durP2;ratioP2;P2;SDS_P1;SDS_P2;PMS_P1;PMS_P2;Temp;Humidity;BMP_temperature;BMP_pressure;BME280_temperature;BME280_humidity;BME280_pressure;Samples;Min_cycle;Max_cycle;Signal;HPM_P1;HPM_P2
2023/08/03 00:00:15;;;;;;;;;5.50;2.75;;;;;19.35;55.79;99533.25;5022898;28;45498;-61
2023/08/03 00:02:40;;;;;;;;;4.00;4.00;;;;;19.35;55.71;99532.41;5034078;28;45508;-61
2023/08/03 00:05:06;;;;;;;;;1.75;1.75;;;;;19.35;55.68;99548.41;5040069;28;45358;-61
2023/08/03 00:07:32;;;;;;;;;4.50;3.00;;;;;19.33;55.65;99537.84;5040049;28;45321;-61
2023/08/03 00:09:57;;;;;;;;;2.00;2.00;;;;;19.33;55.07;99551.16;5039660;28;45183;-61
2023/08/03 00:12:23;;;;;;;;;4.67;4.00;;;;;19.31;55.54;99545.94;5039707;28;45479;-61
2023/08/03 00:14:49;;;;;;;;;5.75;3.50;;;;;19.34;54.86;99550.19;5039744;28;45291;-62
2023/08/03 00:17:14;;;;;;;;;3.50;2.50;;;;;19.32;55.28;99544.16;5040176;28;45251;-61
2023/08/03 00:19:40;;;;;;;;;2.75;2.00;;;;;19.34;55.23;99547.53;5039914;28;45234;-61
2023/08/03 00:22:05;;;;;;;;;3.75;2.50;;;;;19.34;54.97;99555.53;5039494;28;46101;-61
2023/08/03 00:24:30;;;;;;;;;8.75;3.25;;;;;19.32;55.32;99554.78;5039691;28;45266;-61
2023/08/03 00:26:56;;;;;;;;;3.00;1.00;;;;;19.29;55.00;99553.16;5039548;28;45450;-61
2023/08/03 00:29:21;;;;;;;;;4.50;1.75;;;;;19.28;55.06;99543.50;5039569;28;54721;-61
2023/08/03 00:31:46;;;;;;;;;4.25;1.50;;;;;19.29;55.10;99555.00;5039409;28;50717;-61
2023/08/03 00:34:11;;;;;;;;;4.67;2.67;;;;;19.29;55.11;99545.19;5039746;28;45385;-61
2023/08/03 00:36:38;;;;;;;;;6.00;2.50;;;;;19.28;54.67;99554.16;5039521;28;47044;-61
2023/08/03 00:39:04;;;;;;;;;5.00;2.25;;;;;19.28;54.73;99551.50;5039845;28;45458;-61
2023/08/03 00:41:30;;;;;;;;;4.00;2.00;;;;;19.26;54.68;99556.06;5039259;28;45468;-61
2023/08/03 00:43:55;;;;;;;;;4.25;2.50;;;;;19.25;54.51;99557.00;5038693;28;45380;-61
2023/08/03 00:46:21;;;;;;;;;5.25;2.00;;;;;19.25;55.08;99564.16;5038777;28;45313;-61
2023/08/03 00:48:46;;;;;;;;;5.00;4.50;;;;;19.27;54.80;99554.25;5039600;28;45228;-61
2023/08/03 00:51:12;;;;;;;;;2.50;2.25;;;;;19.26;54.76;99553.41;5037954;28;51994;-61
2023/08/03 00:53:37;;;;;;;;;3.00;2.00;;;;;19.26;54.53;99560.53;5038656;28;45251;-61
2023/08/03 00:56:03;;;;;;;;;4.00;2.50;;;;;19.23;54.40;99582.91;5039264;28;45234;-61
2023/08/03 00:58:28;;;;;;;;;4.00;3.00;;;;;19.22;54.50;99549.25;5039630;28;45355;-61
2023/08/03 01:00:53;;;;;;;;;2.25;2.25;;;;;19.23;54.46;99568.72;5039332;28;46038;-61
2023/08/03 01:03:18;;;;;;;;;2.00;1.75;;;;;19.23;54.80;99555.41;5039119;28;48838;-61
2023/08/03 01:05:44;;;;;;;;;3.25;2.50;;;;;19.21;54.81;99560.84;5039484;28;45500;-61
2023/08/03 01:08:09;;;;;;;;;3.00;2.50;;;;;19.20;54.81;99553.81;5039331;28;45444;-61
2023/08/03 01:10:35;;;;;;;;;3.50;2.25;;;;;19.22;54.67;99567.03;5038985;28;45281;-61
2023/08/03 01:13:00;;;;;;;;;3.67;1.33;;;;;19.20;54.77;99551.16;5042429;28;45314;-61
2023/08/03 01:15:25;;;;;;;;;2.50;2.00;;;;;19.21;54.71;99555.53;5031067;28;45245;-61
2023/08/03 01:17:51;;;;;;;;;4.00;2.67;;;;;19.17;54.49;99562.88;5026754;28;45447;-61
2023/08/03 01:20:18;;;;;;;;;1.67;1.67;;;;;19.19;54.67;99560.09;5022674;28;46301;-61
2023/08/03 01:22:44;;;;;;;;;4.00;3.00;;;;;19.17;54.47;99570.84;5022523;28;45423;-61
2023/08/03 01:25:10;;;;;;;;;0.00;0.00;;;;;19.19;54.47;99578.75;5022331;28;45293;-61
2023/08/03 01:27:36;;;;;;;;;4.00;1.00;;;;;19.17;55.13;99589.50;5022547;28;46449;-61
2023/08/03 01:30:01;;;;;;;;;3.67;2.00;;;;;19.14;54.68;99581.75;5022435;28;45303;-61
2023/08/03 01:32:26;;;;;;;;;4.25;3.00;;;;;19.13;55.12;99593.34;5022444;28;45311;-61
2023/08/03 01:34:52;;;;;;;;;2.50;2.00;;;;;19.10;55.42;99587.38;5022591;28;45673;-62
2023/08/03 01:37:18;;;;;;;;;4.50;2.25;;;;;19.05;55.75;99595.66;5022456;28;45250;-62
2023/08/03 01:39:45;;;;;;;;;3.00;2.33;;;;;18.97;55.92;99604.16;5022230;28;46162;-62
2023/08/03 01:42:11;;;;;;;;;2.33;2.33;;;;;18.89;56.35;99610.94;5004420;28;45358;-61
2023/08/03 01:44:37;;;;;;;;;4.25;2.00;;;;;18.73;56.15;99608.41;5021156;28;45404;-61
2023/08/03 01:47:02;;;;;;;;;9.33;2.00;;;;;18.71;56.32;99628.97;5004338;28;45288;-61
2023/08/03 01:49:29;;;;;;;;;1.33;0.33;;;;;18.63;56.59;99633.00;5022081;28;45368;-61
2023/08/03 01:51:55;;;;;;;;;3.67;1.00;;;;;18.49;56.78;99625.06;5022173;28;45324;-61
2023/08/03 01:54:20;;;;;;;;;3.50;2.25;;;;;18.36;57.11;99614.34;5022208;28;45338;-61
2023/08/03 01:56:45;;;;;;;;;5.50;2.50;;;;;18.29;57.35;99629.00;5021607;28;45321;-61
2023/08/03 01:59:11;;;;;;;;;2.00;2.00;;;;;18.19;57.34;99624.25;5013152;28;47079;-61
2023/08/03 02:01:37;;;;;;;;;2.00;1.00;;;;;18.09;57.53;99617.00;5042009;28;45254;-61
2023/08/03 02:04:02;;;;;;;;;4.00;2.00;;;;;18.04;57.90;99633.22;5031795;28;45260;-61
2023/08/03 02:06:28;;;;;;;;;0.75;0.75;;;;;17.93;57.77;99639.16;5021812;28;45433;-61
2023/08/03 02:08:53;;;;;;;;;3.00;2.00;;;;;17.89;58.13;99644.78;5021922;28;45258;-61
2023/08/03 02:11:18;;;;;;;;;2.00;1.25;;;;;17.79;58.46;99636.53;5021619;28;45413;-61
2023/08/03 02:13:44;;;;;;;;;2.67;1.67;;;;;17.75;58.23;99645.59;5039777;28;45307;-61
2023/08/03 02:16:10;;;;;;;;;4.50;2.00;;;;;17.71;58.19;99652.94;5041723;28;45446;-61
2023/08/03 02:18:41;;;;;;;;;3.50;2.25;;;;;17.67;58.63;99651.41;5041737;28;46355;-61
2023/08/03 02:21:06;;;;;;;;;6.75;2.00;;;;;17.63;58.52;99649.88;5041465;28;45171;-61
2023/08/03 02:23:32;;;;;;;;;4.00;3.00;;;;;17.60;58.54;99650.94;5041340;28;45296;-61
2023/08/03 02:25:58;;;;;;;;;3.00;2.00;;;;;17.60;58.91;99663.38;5041178;28;45241;-61
2023/08/03 02:28:24;;;;;;;;;3.50;2.75;;;;;17.55;58.92;99659.16;5041322;28;47044;-61
2023/08/03 02:30:49;;;;;;;;;2.00;1.25;;;;;17.54;59.10;99659.25;5041350;28;45281;-61
2023/08/03 02:33:14;;;;;;;;;7.33;2.00;;;;;17.52;59.22;99671.78;5023561;28;45260;-61
2023/08/03 02:35:40;;;;;;;;;1.00;1.00;;;;;17.49;59.51;99664.84;5041370;28;45296;-61
2023/08/03 02:38:08;;;;;;;;;4.67;2.00;;;;;17.41;59.57;99653.84;5040255;28;46081;-61
2023/08/03 02:40:34;;;;;;;;;5.75;2.75;;;;;17.45;59.84;99665.97;5022701;28;45335;-61
2023/08/03 02:42:59;;;;;;;;;5.00;2.75;;;;;17.41;59.73;99677.75;5041545;28;45321;-60
2023/08/03 02:45:24;;;;;;;;;5.75;2.00;;;;;17.38;59.71;99677.91;5039819;28;45297;-61
2023/08/03 02:47:50;;;;;;;;;2.25;2.00;;;;;17.38;60.08;99676.13;5041163;28;45897;-61
2023/08/03 02:50:15;;;;;;;;;1.33;1.33;;;;;17.36;59.96;99671.84;5041120;28;45337;-62
2023/08/03 02:52:40;;;;;;;;;3.00;3.00;;;;;17.37;60.07;99685.03;5041725;28;45340;-61
2023/08/03 02:55:06;;;;;;;;;4.00;2.00;;;;;17.35;60.05;99692.22;5040748;28;45547;-61
2023/08/03 02:57:32;;;;;;;;;5.75;3.25;;;;;17.32;60.08;99678.28;5041162;28;46290;-61
2023/08/03 02:59:57;;;;;;;;;3.75;2.00;;;;;17.33;60.33;99690.59;5040895;28;45234;-62
2023/08/03 03:02:22;;;;;;;;;3.00;2.00;;;;;17.31;60.40;99684.56;5041298;28;45448;-61
2023/08/03 03:04:49;;;;;;;;;2.67;2.67;;;;;17.28;60.40;99684.72;5040957;28;45518;-61
2023/08/03 03:07:15;;;;;;;;;3.00;2.25;;;;;17.26;60.45;99679.50;5040891;28;46909;-61
2023/08/03 03:09:40;;;;;;;;;3.25;1.00;;;;;17.28;60.57;99679.41;5040625;28;45245;-61
2023/08/03 03:12:06;;;;;;;;;1.75;1.00;;;;;17.24;60.35;99680.53;5041004;28;45240;-61
2023/08/03 03:14:31;;;;;;;;;2.50;1.00;;;;;17.26;60.49;99676.84;5040797;28;45344;-61
2023/08/03 03:16:56;;;;;;;;;2.25;2.00;;;;;17.24;60.56;99683.19;5040357;28;57689;-61
2023/08/03 03:19:22;;;;;;;;;5.50;2.50;;;;;17.26;60.55;99695.44;5032518;28;50579;-61
2023/08/03 03:21:47;;;;;;;;;3.00;1.50;;;;;17.24;60.81;99694.66;5020802;28;48223;-61
2023/08/03 03:24:12;;;;;;;;;2.00;2.00;;;;;17.22;60.74;99701.88;5020803;28;45289;-61
2023/08/03 03:26:38;;;;;;;;;4.00;3.25;;;;;17.21;60.95;99692.19;5002204;28;51652;-61
2023/08/03 03:29:03;;;;;;;;;2.00;1.75;;;;;17.21;61.10;99700.16;5020753;28;45396;-61
2023/08/03 03:31:28;;;;;;;;;3.00;1.50;;;;;17.19;61.18;99686.97;5020788;28;45327;-61
2023/08/03 03:33:53;;;;;;;;;2.00;2.00;;;;;17.17;61.18;99696.81;5020158;28;45416;-61
2023/08/03 03:36:19;;;;;;;;;5.00;1.33;;;;;17.16;61.04;99691.63;5020550;28;46087;-61
2023/08/03 03:38:44;;;;;;;;;2.25;2.25;;;;;17.15;61.26;99700.50;5020622;28;45334;-61
2023/08/03 03:41:09;;;;;;;;;2.33;2.00;;;;;17.14;60.90;99696.97;5020438;28;45519;-61
2023/08/03 03:43:35;;;;;;;;;2.00;2.00;;;;;17.16;61.41;99700.41;5018913;28;51617;-62
2023/08/03 03:46:02;;;;;;;;;5.25;2.00;;;;;17.15;61.42;99711.97;5020502;28;46129;-61
2023/08/03 03:48:27;;;;;;;;;3.33;1.67;;;;;17.15;61.53;99722.59;5020529;28;45182;-61
2023/08/03 03:50:53;;;;;;;;;1.33;1.33;;;;;17.16;61.50;99707.53;5020542;28;45409;-61
2023/08/03 03:53:18;;;;;;;;;1.75;1.00;;;;;17.15;61.27;99722.59;5020201;28;46834;-61
2023/08/03 03:55:43;;;;;;;;;3.33;2.00;;;;;17.18;61.51;99721.56;5020030;28;46272;-61
2023/08/03 03:58:09;;;;;;;;;6.00;3.75;;;;;17.16;61.62;99712.84;5020391;28;45218;-62
2023/08/03 04:00:39;;;;;;;;;1.33;1.00;;;;;17.08;61.51;99726.56;5040480;28;45269;-61
2023/08/03 04:03:05;;;;;;;;;2.00;1.00;;;;;17.14;61.80;99726.19;5040069;28;45420;-61
2023/08/03 04:05:30;;;;;;;;;4.00;1.00;;;;;17.10;61.59;99703.44;5040036;28;45249;-61
2023/08/03 04:07:55;;;;;;;;;2.25;1.25;;;;;17.15;61.58;99721.75;5025789;28;45357;-61
2023/08/03 04:10:21;;;;;;;;;3.25;1.00;;;;;17.12;61.71;99712.16;5019585;28;54690;-61
2023/08/03 04:12:46;;;;;;;;;4.50;1.25;;;;;17.14;61.79;99720.03;5029816;28;45433;-61
2023/08/03 04:15:11;;;;;;;;;3.25;2.00;;;;;17.13;62.15;99728.94;5021961;28;47649;-61
2023/08/03 04:17:38;;;;;;;;;2.00;2.00;;;;;17.15;61.76;99727.91;5039755;28;49397;-61
2023/08/03 04:20:04;;;;;;;;;3.50;2.25;;;;;17.12;62.09;99716.59;5040186;28;45246;-61
2023/08/03 04:22:30;;;;;;;;;7.00;2.00;;;;;17.15;62.37;99722.59;5021701;28;45465;-61
2023/08/03 04:24:55;;;;;;;;;2.67;2.00;;;;;17.13;61.80;99719.19;5039100;28;53025;-61
2023/08/03 04:27:20;;;;;;;;;3.50;2.00;;;;;17.16;62.05;99694.25;5039872;28;45240;-61
2023/08/03 04:29:46;;;;;;;;;6.75;3.00;;;;;17.17;62.07;99731.34;5040132;28;45446;-61
2023/08/03 04:32:11;;;;;;;;;3.00;2.00;;;;;17.18;61.85;99727.75;5039232;28;55737;-61
2023/08/03 04:34:36;;;;;;;;;3.75;2.00;;;;;17.17;62.11;99744.59;5038955;28;46131;-61
2023/08/03 04:37:02;;;;;;;;;2.00;1.00;;;;;17.13;62.03;99729.81;5038805;28;45337;-61
2023/08/03 04:39:28;;;;;;;;;3.33;1.33;;;;;17.17;62.29;99741.94;5039688;28;45253;-62
2023/08/03 04:41:53;;;;;;;;;5.25;2.00;;;;;17.18;62.33;99735.69;5031434;28;45336;-61
2023/08/03 04:44:18;;;;;;;;;4.75;2.50;;;;;17.20;62.15;99747.06;5037957;28;51980;-61
2023/08/03 04:46:44;;;;;;;;;5.00;2.33;;;;;17.21;62.24;99740.81;5027941;28;46116;-61
2023/08/03 04:49:12;;;;;;;;;2.25;2.00;;;;;17.22;61.95;99747.00;5023276;28;45350;-61
2023/08/03 04:51:37;;;;;;;;;4.00;2.00;;;;;17.25;62.10;99748.63;5023124;28;45264;-61
2023/08/03 04:54:03;;;;;;;;;0.00;0.00;;;;;17.28;62.09;99759.94;5022968;28;45226;-61
2023/08/03 04:56:28;;;;;;;;;3.25;2.00;;;;;17.28;62.42;99746.66;5022767;28;45409;-61
2023/08/03 04:58:53;;;;;;;;;4.00;1.25;;;;;17.30;62.39;99759.84;5025007;28;45187;-61
2023/08/03 05:01:19;;;;;;;;;4.25;3.00;;;;;17.28;62.35;99753.75;5036318;28;45228;-61
2023/08/03 05:03:44;;;;;;;;;3.00;1.00;;;;;17.29;62.16;99764.25;5033955;28;47650;-61
2023/08/03 05:06:09;;;;;;;;;1.00;0.33;;;;;17.31;62.27;99758.91;5030145;28;45229;-61
2023/08/03 05:08:34;;;;;;;;;1.00;1.00;;;;;17.32;62.13;99758.81;5022667;28;46362;-61
2023/08/03 05:11:00;;;;;;;;;2.50;2.00;;;;;17.31;62.18;99754.44;5022332;28;54269;-61
2023/08/03 05:13:25;;;;;;;;;3.00;1.75;;;;;17.37;62.13;99762.03;5036248;28;56593;-61
2023/08/03 05:15:50;;;;;;;;;2.75;2.50;;;;;17.40;62.21;99760.16;5042892;28;45217;-61
2023/08/03 05:18:16;;;;;;;;;0.25;0.25;;;;;17.41;62.12;99760.06;5042771;28;45285;-62
2023/08/03 05:20:41;;;;;;;;;2.00;1.50;;;;;17.43;62.11;99752.00;5042527;28;53522;-61
2023/08/03 05:23:09;;;;;;;;;1.25;1.25;;;;;17.47;62.15;99762.38;5042440;28;45314;-61
2023/08/03 05:25:34;;;;;;;;;2.50;2.50;;;;;17.48;62.40;99761.44;5042350;28;45350;-61
2023/08/03 05:28:00;;;;;;;;;3.00;1.25;;;;;17.51;62.05;99760.38;5042312;28;45417;-61
2023/08/03 05:30:25;;;;;;;;;2.00;1.25;;;;;17.54;62.07;99763.69;5042549;28;45413;-62
2023/08/03 05:32:51;;;;;;;;;2.75;2.00;;;;;17.54;61.82;99765.50;5042318;28;46883;-62
2023/08/03 05:35:16;;;;;;;;;1.75;1.00;;;;;17.57;62.24;99765.31;5042380;28;45392;-61
2023/08/03 05:37:42;;;;;;;;;2.00;2.00;;;;;17.60;62.15;99769.63;5042531;28;45192;-61
2023/08/03 05:40:07;;;;;;;;;3.00;2.00;;;;;17.62;61.97;99771.25;5042216;28;45475;-61
2023/08/03 05:42:39;;;;;;;;;5.25;2.50;;;;;17.63;62.02;99772.06;5042136;28;46923;-61
2023/08/03 05:45:10;;;;;;;;;2.00;2.00;;;;;17.65;62.08;99772.84;5042341;28;45299;-61
2023/08/03 05:47:38;;;;;;;;;2.00;2.00;;;;;17.65;62.04;99773.69;5042196;28;45243;-62
2023/08/03 05:50:12;;;;;;;;;4.25;2.25;;;;;17.65;62.00;99779.00;5042250;28;45340;-62
2023/08/03 05:52:38;;;;;;;;;2.00;1.00;;;;;17.69;61.90;99783.19;5042047;28;46144;-61
2023/08/03 05:55:03;;;;;;;;;2.25;1.50;;;;;17.71;61.99;99791.09;5041581;28;45377;-61
2023/08/03 05:57:29;;;;;;;;;2.75;2.75;;;;;17.73;61.71;99783.88;5041849;28;45335;-61
2023/08/03 05:59:54;;;;;;;;;3.25;1.00;;;;;17.76;61.91;99781.03;5024318;28;45552;-61
2023/08/03 06:02:35;;;;;;;;;3.25;1.00;;;;;17.76;61.89;99786.34;5042041;28;45728;-61
2023/08/03 06:05:00;;;;;;;;;2.50;2.00;;;;;17.73;61.78;99783.03;5034086;28;46075;-61
2023/08/03 06:07:26;;;;;;;;;3.00;2.00;;;;;17.79;61.85;99791.47;5021972;28;45332;-61
2023/08/03 06:09:52;;;;;;;;;3.00;1.00;;;;;17.82;61.94;99790.44;5020380;28;45388;-61
2023/08/03 06:12:18;;;;;;;;;5.00;3.00;;;;;17.85;62.31;99800.91;5009799;28;45345;-61
2023/08/03 06:14:43;;;;;;;;;5.50;3.00;;;;;17.85;61.48;99796.44;5041727;28;45282;-61
2023/08/03 06:17:10;;;;;;;;;5.75;2.00;;;;;17.89;61.67;99801.56;5041761;28;45385;-61
2023/08/03 06:19:35;;;;;;;;;4.00;3.00;;;;;17.91;61.53;99804.97;5041717;28;45663;-61
2023/08/03 06:22:12;;;;;;;;;7.00;4.00;;;;;17.93;61.64;99819.03;5041289;28;46122;-61
2023/08/03 06:24:37;;;;;;;;;2.50;2.25;;;;;17.95;61.70;99806.53;5041546;28;45430;-61
2023/08/03 06:27:03;;;;;;;;;1.00;1.00;;;;;17.98;61.62;99811.69;5041441;28;45222;-61
2023/08/03 06:29:28;;;;;;;;;3.25;2.50;;;;;17.98;61.57;99806.38;5041587;28;45215;-61
2023/08/03 06:31:53;;;;;;;;;2.75;2.75;;;;;18.01;61.50;99811.47;5041382;28;45301;-61
2023/08/03 06:34:19;;;;;;;;;2.75;2.75;;;;;18.01;61.55;99830.09;5041024;28;45273;-61
2023/08/03 06:36:44;;;;;;;;;1.00;1.00;;;;;18.01;61.58;99814.13;5041571;28;45261;-61
2023/08/03 06:39:10;;;;;;;;;2.50;2.00;;;;;18.06;61.54;99820.03;5041311;28;45232;-61
2023/08/03 06:41:35;;;;;;;;;2.50;2.00;;;;;18.06;61.30;99832.47;5041323;28;45333;-61
2023/08/03 06:44:01;;;;;;;;;7.25;3.00;;;;;18.05;61.54;99823.66;5041271;28;45314;-61
2023/08/03 06:46:27;;;;;;;;;2.25;1.00;;;;;18.09;61.42;99835.81;5041452;28;45444;-61
2023/08/03 06:48:53;;;;;;;;;1.75;1.75;;;;;18.11;61.29;99833.94;5041006;28;45470;-61
2023/08/03 06:51:19;;;;;;;;;4.00;3.00;;;;;18.10;61.41;99848.16;5041230;28;45358;-61
2023/08/03 06:53:46;;;;;;;;;1.50;1.50;;;;;18.13;61.12;99841.81;5040967;28;45278;-61
2023/08/03 06:56:12;;;;;;;;;1.00;1.00;;;;;18.13;61.45;99849.78;5040019;28;45307;-61
2023/08/03 06:58:37;;;;;;;;;1.75;1.75;;;;;18.15;61.15;99856.72;5041103;28;45254;-61
2023/08/03 07:01:02;;;;;;;;;3.50;2.00;;;;;18.14;61.32;99849.69;5040757;28;51451;-61
2023/08/03 07:03:28;;;;;;;;;1.50;1.00;;;;;18.17;61.11;99864.59;5041001;28;45151;-61
2023/08/03 07:05:53;;;;;;;;;3.00;2.00;;;;;18.16;61.04;99862.88;5041054;28;45542;-61
2023/08/03 07:08:19;;;;;;;;;3.25;2.00;;;;;18.14;60.85;99852.34;5040425;28;45195;-61
2023/08/03 07:10:44;;;;;;;;;2.50;2.00;;;;;18.19;61.07;99854.72;5040021;28;45256;-61
2023/08/03 07:13:10;;;;;;;;;5.00;2.00;;;;;18.20;61.16;99856.44;5040686;28;45313;-61
2023/08/03 07:15:35;;;;;;;;;2.50;2.50;;;;;18.24;61.31;99860.63;5041030;28;45212;-61
2023/08/03 07:18:05;;;;;;;;;1.50;1.50;;;;;18.23;60.94;99863.38;5040723;28;45232;-61
2023/08/03 07:20:31;;;;;;;;;6.00;2.00;;;;;18.27;60.86;99880.84;5040748;28;45374;-61
2023/08/03 07:22:57;;;;;;;;;3.00;3.00;;;;;18.28;61.14;99877.25;5040384;28;45254;-61
2023/08/03 07:25:22;;;;;;;;;5.00;3.00;;;;;18.30;60.91;99880.66;5040449;28;45557;-61
2023/08/03 07:27:48;;;;;;;;;5.00;3.25;;;;;18.29;60.86;99887.78;5040431;28;45177;-60
2023/08/03 07:30:13;;;;;;;;;1.75;1.75;;;;;18.29;61.28;99893.13;5040559;28;45284;-61
2023/08/03 07:32:38;;;;;;;;;5.00;2.00;;;;;18.31;60.91;99890.34;5040487;28;45241;-61
2023/08/03 07:35:04;;;;;;;;;3.00;2.50;;;;;18.32;60.82;99882.28;5040751;28;45345;-60
2023/08/03 07:37:30;;;;;;;;;5.00;4.00;;;;;18.29;60.72;99900.25;5040395;28;45237;-61
2023/08/03 07:39:55;;;;;;;;;4.00;3.00;;;;;18.35;60.74;99903.38;5040129;28;45266;-61
2023/08/03 07:42:20;;;;;;;;;3.75;2.00;;;;;18.35;61.13;99907.84;5040307;28;45595;-61
2023/08/03 07:44:46;;;;;;;;;2.50;1.50;;;;;18.36;61.11;99904.22;5040130;28;50206;-60
2023/08/03 07:47:11;;;;;;;;;4.00;2.50;;;;;18.37;61.13;99905.09;5040173;28;45175;-61
2023/08/03 07:49:36;;;;;;;;;3.25;2.00;;;;;18.41;60.56;99911.94;5038898;28;45428;-60
2023/08/03 07:52:02;;;;;;;;;2.50;2.00;;;;;18.40;60.68;99918.19;5040171;28;45348;-61
2023/08/03 07:54:27;;;;;;;;;4.25;1.25;;;;;18.41;61.04;99910.13;5040413;28;45633;-60
2023/08/03 07:56:52;;;;;;;;;3.50;3.50;;;;;18.43;60.79;99907.41;5040043;28;45301;-61
2023/08/03 07:59:18;;;;;;;;;2.50;0.00;;;;;18.46;60.74;99918.69;5039922;28;48779;-61
2023/08/03 08:01:46;;;;;;;;;5.00;2.00;;;;;18.48;60.64;99915.94;5039980;28;47262;-61
2023/08/03 08:04:11;;;;;;;;;2.25;2.00;;;;;18.48;60.81;99919.47;5039816;28;45318;-61
2023/08/03 08:06:37;;;;;;;;;2.75;2.25;;;;;18.48;60.67;99926.59;5039934;28;45472;-61
2023/08/03 08:09:03;;;;;;;;;4.00;2.75;;;;;18.50;60.81;99943.28;5039932;28;46507;-61
2023/08/03 08:11:29;;;;;;;;;1.25;0.75;;;;;18.52;60.69;99928.94;5039616;28;45270;-62
2023/08/03 08:13:57;;;;;;;;;2.00;2.00;;;;;18.56;60.68;99928.78;5040092;28;45285;-62
2023/08/03 08:16:22;;;;;;;;;2.00;2.00;;;;;18.57;60.96;99947.31;5039856;28;45467;-59
2023/08/03 08:18:47;;;;;;;;;2.50;1.00;;;;;18.58;60.54;99937.50;5039789;28;45799;-59
2023/08/03 08:21:13;;;;;;;;;2.75;2.00;;;;;18.60;60.92;99941.81;5039699;28;45297;-61
2023/08/03 08:23:39;;;;;;;;;2.50;2.50;;;;;18.59;60.67;99940.09;5039845;28;45343;-61
2023/08/03 08:26:10;;;;;;;;;3.75;2.75;;;;;18.60;60.94;99941.81;5039467;28;45289;-59
2023/08/03 08:28:35;;;;;;;;;4.25;2.00;;;;;18.60;60.52;99957.78;5038358;28;47435;-59
2023/08/03 08:31:00;;;;;;;;;3.00;2.00;;;;;18.59;60.82;99972.03;5038878;28;45337;-59
2023/08/03 08:33:26;;;;;;;;;3.75;2.75;;;;;18.58;60.84;99975.63;5039899;28;45237;-59
2023/08/03 08:35:51;;;;;;;;;2.00;1.00;;;;;18.58;60.98;99964.13;5039174;28;57369;-59
2023/08/03 08:38:16;;;;;;;;;6.00;3.00;;;;;18.56;61.24;99958.91;5039719;28;46122;-59
2023/08/03 08:40:44;;;;;;;;;5.00;3.00;;;;;18.57;60.92;99973.91;5039277;28;45365;-59
2023/08/03 08:43:10;;;;;;;;;2.25;2.00;;;;;18.56;61.06;99966.03;5039888;28;45515;-59
2023/08/03 08:45:36;;;;;;;;;2.50;2.00;;;;;18.57;60.82;99970.41;5039469;28;45306;-59
2023/08/03 08:48:03;;;;;;;;;2.00;2.00;;;;;18.56;60.99;99974.00;5021449;28;45517;-59
2023/08/03 08:50:29;;;;;;;;;3.50;2.00;;;;;18.60;60.79;99970.22;5039460;28;45269;-61
2023/08/03 08:52:55;;;;;;;;;2.00;0.75;;;;;18.57;61.06;99965.94;5029422;28;45328;-59
2023/08/03 08:55:23;;;;;;;;;2.00;2.00;;;;;18.59;61.05;99989.78;5021317;28;45203;-60
2023/08/03 08:57:49;;;;;;;;;2.00;2.00;;;;;18.61;60.98;99979.91;5019056;28;45335;-60
2023/08/03 09:00:15;;;;;;;;;5.50;2.00;;;;;18.61;60.70;99974.59;5036790;28;45305;-59
2023/08/03 09:02:40;;;;;;;;;3.25;1.50;;;;;18.60;60.81;99981.72;5039570;28;45446;-59
2023/08/03 09:05:20;;;;;;;;;3.00;2.00;;;;;18.61;60.78;99983.41;5039263;28;45408;-60
2023/08/03 09:07:57;;;;;;;;;2.75;2.75;;;;;18.63;60.86;99991.34;5021423;28;47218;-59
2023/08/03 09:10:23;;;;;;;;;6.50;3.75;;;;;18.67;60.81;100007.00;5039005;28;45301;-60
2023/08/03 09:12:48;;;;;;;;;3.75;3.50;;;;;18.69;60.53;99998.91;5039258;28;45368;-60
2023/08/03 09:15:13;;;;;;;;;3.00;3.00;;;;;18.71;60.84;100005.00;5039269;28;45602;-60
2023/08/03 09:17:39;;;;;;;;;2.00;2.00;;;;;18.73;60.99;100005.78;5039166;28;45411;-60
2023/08/03 09:20:05;;;;;;;;;3.00;3.00;;;;;18.75;60.98;100014.53;5037611;28;56645;-60
2023/08/03 09:22:43;;;;;;;;;2.75;2.75;;;;;18.81;60.81;100013.31;5031267;28;45435;-60
2023/08/03 09:25:09;;;;;;;;;5.00;3.50;;;;;18.81;60.63;100008.81;5018776;28;45226;-62
2023/08/03 09:27:37;;;;;;;;;4.50;3.25;;;;;18.87;60.55;100010.28;5017474;28;45981;-60
2023/08/03 09:30:04;;;;;;;;;3.00;3.00;;;;;18.91;60.63;100008.31;5019503;28;45480;-60
2023/08/03 09:32:34;;;;;;;;;6.00;2.50;;;;;18.93;60.75;100001.97;5020008;28;45436;-60
2023/08/03 09:35:01;;;;;;;;;2.00;2.00;;;;;18.97;60.38;100021.25;5022331;28;45262;-60
2023/08/03 09:37:34;;;;;;;;;6.00;4.75;;;;;19.00;60.13;100013.06;5022371;28;45574;-60
2023/08/03 09:40:03;;;;;;;;;3.00;3.00;;;;;19.02;60.20;100011.19;5022265;28;45175;-60
2023/08/03 09:42:31;;;;;;;;;3.25;2.00;;;;;19.06;60.52;100003.88;5022372;28;45418;-60
2023/08/03 09:44:59;;;;;;;;;3.75;2.50;;;;;19.09;59.79;100012.50;5022322;28;45512;-60
2023/08/03 09:47:24;;;;;;;;;1.50;1.50;;;;;19.07;59.92;100008.22;5021922;28;46392;-61
2023/08/03 09:49:50;;;;;;;;;3.25;2.00;;;;;19.10;59.90;100016.88;5022501;28;45209;-60
2023/08/03 09:52:22;;;;;;;;;4.25;2.00;;;;;19.13;59.92;100026.50;5022282;28;45330;-60
2023/08/03 09:54:55;;;;;;;;;5.00;2.25;;;;;19.17;59.95;100020.03;5021957;28;45171;-60
2023/08/03 09:57:23;;;;;;;;;1.50;1.00;;;;;19.20;59.79;100022.50;5021568;28;45361;-60
2023/08/03 09:59:55;;;;;;;;;1.50;1.50;;;;;19.22;60.17;100023.28;5035831;28;45303;-60
2023/08/03 10:02:23;;;;;;;;;2.00;1.00;;;;;19.23;59.57;100024.13;5029156;28;45471;-60
2023/08/03 10:04:54;;;;;;;;;2.50;2.00;;;;;19.27;59.75;100037.16;5041899;28;45247;-60
2023/08/03 10:07:23;;;;;;;;;3.00;3.00;;;;;19.27;59.33;100042.50;5041861;28;46228;-60
2023/08/03 10:09:53;;;;;;;;;1.50;1.25;;;;;19.27;59.22;100036.28;5041432;28;45286;-62
2023/08/03 10:12:24;;;;;;;;;6.00;2.00;;;;;19.30;59.20;100046.78;5041922;28;45277;-60
2023/08/03 10:14:52;;;;;;;;;2.25;2.25;;;;;19.29;59.59;100029.91;5041595;28;45184;-60
2023/08/03 10:17:19;;;;;;;;;3.00;2.50;;;;;19.27;59.55;100053.16;5041577;28;46588;-60
2023/08/03 10:19:45;;;;;;;;;2.50;2.00;;;;;19.28;59.16;100038.88;5041583;28;45471;-60
2023/08/03 10:22:11;;;;;;;;;2.00;2.00;;;;;19.27;59.47;100045.16;5031666;28;45471;-60
2023/08/03 10:24:37;;;;;;;;;2.75;1.25;;;;;19.28;59.57;100048.66;5023590;28;45223;-60
2023/08/03 10:27:19;;;;;;;;;2.75;2.75;;;;;19.29;59.37;100051.22;5021281;28;45204;-60
2023/08/03 10:29:56;;;;;;;;;3.00;2.00;;;;;19.33;59.04;100057.22;5021505;28;45345;-60
2023/08/03 10:32:27;;;;;;;;;2.50;2.00;;;;;19.31;59.12;100059.16;5028420;28;45280;-60
2023/08/03 10:34:58;;;;;;;;;1.00;1.00;;;;;19.31;58.81;100056.47;5021475;28;45500;-60
2023/08/03 10:37:23;;;;;;;;;1.00;1.00;;;;;19.28;58.88;100062.84;5021271;28;45307;-60
2023/08/03 10:39:52;;;;;;;;;2.00;2.00;;;;;19.26;59.04;100083.38;5021106;28;45332;-60
2023/08/03 10:42:19;;;;;;;;;2.25;2.00;;;;;19.27;59.18;100076.25;5021707;28;45472;-60
2023/08/03 10:44:44;;;;;;;;;3.00;2.25;;;;;19.28;59.34;100085.94;5021316;28;45286;-62
2023/08/03 10:47:22;;;;;;;;;2.50;1.50;;;;;19.29;59.34;100064.53;5021158;28;45317;-60
2023/08/03 10:49:49;;;;;;;;;1.00;0.75;;;;;19.31;59.20;100075.97;5021566;28;45254;-60
2023/08/03 10:52:39;;;;;;;;;3.50;2.25;;;;;19.31;58.94;100096.44;5021292;28;45253;-60
2023/08/03 10:55:26;;;;;;;;;1.00;1.00;;;;;19.33;59.52;100083.84;5020748;28;45265;-60
2023/08/03 10:57:55;;;;;;;;;1.00;1.00;;;;;19.35;59.49;100071.31;5021328;28;45384;-60
2023/08/03 11:00:20;;;;;;;;;1.75;1.75;;;;;19.37;59.48;100104.06;5039334;28;45226;-60
2023/08/03 11:02:45;;;;;;;;;3.00;2.00;;;;;19.41;59.37;100084.25;5041134;28;45218;-60
2023/08/03 11:05:14;;;;;;;;;3.50;2.00;;;;;19.41;59.10;100094.91;5040964;28;45234;-60
2023/08/03 11:07:42;;;;;;;;;2.75;2.00;;;;;19.46;59.32;100089.31;5040927;28;46253;-60
2023/08/03 11:10:10;;;;;;;;;3.00;3.00;;;;;19.48;59.61;100090.06;5040528;28;45349;-60
2023/08/03 11:12:36;;;;;;;;;2.67;1.00;;;;;19.49;59.17;100095.28;5040976;28;45372;-60
2023/08/03 11:15:02;;;;;;;;;3.00;3.00;;;;;19.51;59.20;100099.66;5017084;28;45547;-60
2023/08/03 11:17:29;;;;;;;;;3.50;2.00;;;;;19.52;59.50;100101.38;5020753;28;47389;-61
2023/08/03 11:19:56;;;;;;;;;2.00;1.50;;;;;19.56;58.96;100111.78;5020783;28;45278;-60
2023/08/03 11:22:23;;;;;;;;;2.00;2.00;;;;;19.58;59.34;100107.19;5020830;28;45275;-60
2023/08/03 11:25:00;;;;;;;;;2.00;2.00;;;;;19.61;59.33;100104.34;5020389;28;45178;-60
2023/08/03 11:27:26;;;;;;;;;1.00;1.00;;;;;19.61;59.05;100104.34;5020444;28;46200;-60